Saga Sapphire — 9HOF8 — position and weather

sailwx.info

Track history (hours):
 
Tides and Currents Weather Stations Pressure Air Temp Water Temp Dewpoint Dewpoint Depression Visibility Wind Speed Wind Dir Waves Ship Positions

Saga Sapphire

Last reported at 2019-Jul-22 05:00 UTC. Time now 2019-Jul-22 05:24 UTC.
Position N 51°12' E 001°40'.

Length 200 m; draft 8.4 m.

Type: Passenger vessel. MMSI: 256208000.

Date/timePositionNaut miles runAvg speedWind from/ knotsBaromVisibWave heightAir tempDewpointWater temp
2019-Jul-22 05:00N 51°12' E 001°40'5 9.4
2019-Jul-22 04:30N 51°15' E 001°46'5 9.4
2019-Jul-22 04:00N 51°19' E 001°50'5 9.6
2019-Jul-22 03:30N 51°23' E 001°52'510.1
2019-Jul-22 03:00N 51°28' E 001°57'510.9
2019-Jul-22 02:30N 51°31' E 002°03'611.4
2019-Jul-22 02:00N 51°36' E 002°09'2146.8
2019-Jul-22 02:00N 51°36' E 002°06'715.2 190 / 211021.410.8 17.714.8
2019-Jul-22 01:30N 51°40' E 002°16'612.5
2019-Jul-22 01:00N 51°44' E 002°23'613.0
2019-Jul-22 00:30N 51°49' E 002°31'713.1
2019-Jul-22 00:00N 51°55' E 002°35'714.4
2019-Jul-21 23:30N 52°02' E 002°36'714.5
2019-Jul-21 23:00N 52°09' E 002°38'714.4
2019-Jul-21 22:30N 52°16' E 002°39'713.9
2019-Jul-21 22:00N 52°23' E 002°38'713.5
2019-Jul-21 21:30N 52°30' E 002°38'713.1
2019-Jul-21 21:00N 52°37' E 002°38'612.8
2019-Jul-21 20:30N 52°43' E 002°38'612.5
2019-Jul-21 20:00N 52°49' E 002°38'612.0
2019-Jul-21 19:30N 52°55' E 002°38'611.7
2019-Jul-21 19:00N 53°01' E 002°38'611.4
2019-Jul-21 18:30N 53°07' E 002°39'611.3
2019-Jul-21 18:00N 53°12' E 002°42'611.4
2019-Jul-21 17:30N 53°17' E 002°45'611.5
2019-Jul-21 17:00N 53°23' E 002°49'611.8
2019-Jul-21 16:30N 53°28' E 002°52'612.1
2019-Jul-21 16:00N 53°34' E 002°55'612.5
2019-Jul-21 15:30N 53°40' E 002°58'9412.5
2019-Jul-21 08:00N 55°12' E 003°30'9012.9 240 / 141014.710.8 17.314.513.0
2019-Jul-21 01:00N 56°42' E 003°42'7114.1 200 / 121007.1 2.2 15.015.0
2019-Jul-20 19:55N 57°53' E 003°52'1212.3
2019-Jul-20 18:58N 58°05' E 003°48'612.8
2019-Jul-20 18:30N 58°10' E 003°52'712.7
2019-Jul-20 17:56N 58°17' E 003°55'613.1
2019-Jul-20 17:30N 58°23' E 003°55'713.4
2019-Jul-20 16:57N 58°30' E 003°56'713.4
2019-Jul-20 16:28N 58°37' E 003°56'613.1
2019-Jul-20 16:00N 58°43' E 003°59'713.1
2019-Jul-20 15:30N 58°49' E 004°01'613.0
2019-Jul-20 15:00N 58°56' E 004°02'612.7
2019-Jul-20 14:30N 59°02' E 004°01'612.0
2019-Jul-20 14:00N 59°08' E 004°01'611.7
2019-Jul-20 13:30N 59°14' E 004°01'611.2
2019-Jul-20 12:59N 59°20' E 004°01'511.1
2019-Jul-20 12:30N 59°25' E 004°01'611.5
2019-Jul-20 11:59N 59°31' E 004°01'611.7
2019-Jul-20 11:30N 59°37' E 004°01'612.0
2019-Jul-20 10:59N 59°43' E 004°01'612.1
2019-Jul-20 10:30N 59°49' E 004°01'612.1
2019-Jul-20 10:00N 59°55' E 004°01'612.3
2019-Jul-20 09:30N 60°01' E 004°01'612.5
2019-Jul-20 09:00N 60°07' E 004°01'612.5
2019-Jul-20 08:30N 60°13' E 004°01'612.6
2019-Jul-20 08:00N 60°20' E 004°01'612.9
2019-Jul-20 07:30N 60°26' E 004°01'611.3
2019-Jul-20 07:00N 60°32' E 004°01'612.2
2019-Jul-20 06:30N 60°38' E 004°01'713.7
2019-Jul-20 06:00N 60°45' E 004°01'713.3
2019-Jul-20 05:30N 60°51' E 004°01'713.2
2019-Jul-20 05:00N 60°58' E 004°02'713.2
2019-Jul-20 04:30N 61°05' E 004°01'713.2
2019-Jul-20 04:00N 61°11' E 004°01'713.2
2019-Jul-20 03:30N 61°18' E 004°02'713.1
2019-Jul-20 03:00N 61°24' E 004°02'712.8
2019-Jul-20 02:29N 61°31' E 004°06'713.2
2019-Jul-20 01:59N 61°36' E 004°12'613.3
2019-Jul-20 01:30N 61°42' E 004°18'713.4
2019-Jul-20 01:00N 61°48' E 004°24'088.8
2019-Jul-20 01:00N 61°48' E 004°24'714.8 150 / 171010.310.8 13.012.3
2019-Jul-20 00:30N 61°55' E 004°31'713.9
2019-Jul-19 23:59N 62°01' E 004°37'713.7
2019-Jul-19 23:30N 62°07' E 004°44'713.6
2019-Jul-19 23:00N 62°12' E 004°53'713.6
2019-Jul-19 22:30N 62°18' E 005°02'613.3
2019-Jul-19 22:00N 62°23' E 005°10'713.1
2019-Jul-19 21:29N 62°29' E 005°18'612.5
2019-Jul-19 21:00N 62°30' E 005°31'021.8
2019-Jul-19 21:00N 62°30' E 005°30'714.1 090 / 51010.810.8 14.012.2
2019-Jul-19 20:30N 62°30' E 005°45'713.8
2019-Jul-19 20:00N 62°27' E 005°58'511.0
2019-Jul-19 19:30N 62°23' E 006°08'714.6
2019-Jul-19 19:00N 62°24' E 006°23'815.1
2019-Jul-19 18:30N 62°27' E 006°39'714.2
2019-Jul-19 18:00N 62°26' E 006°54'714.1
2019-Jul-19 17:30N 62°19' E 006°58'714.0
2019-Jul-19 17:00N 62°12' E 007°02'612.6
2019-Jul-19 16:30N 62°06' E 006°59'510.2
2019-Jul-19 16:00N 62°07' E 007°10'1 1.7
2019-Jul-19 15:29N 62°06' E 007°11'0 0.1
2019-Jul-19 14:59N 62°06' E 007°11'0 0.0
2019-Jul-19 14:30N 62°06' E 007°11'0 0.0
2019-Jul-19 13:59N 62°06' E 007°11'0 0.0
2019-Jul-19 13:29N 62°06' E 007°11'0 0.0
2019-Jul-19 13:00N 62°06' E 007°11'0 0.0
2019-Jul-19 12:25N 62°06' E 007°11'0 0.0
2019-Jul-19 11:58N 62°06' E 007°11'0 0.0
2019-Jul-19 11:30N 62°06' E 007°11'0 0.0
2019-Jul-19 11:00N 62°06' E 007°11'0 0.0
2019-Jul-19 10:29N 62°06' E 007°11'0 0.0
2019-Jul-19 10:00N 62°06' E 007°11'0 0.0
2019-Jul-19 09:30N 62°06' E 007°11'0 0.0
2019-Jul-19 09:00N 62°06' E 007°11'0 0.0
2019-Jul-19 08:30N 62°06' E 007°11'0 0.0
2019-Jul-19 08:00N 62°06' E 007°11'0 0.0
2019-Jul-19 07:30N 62°06' E 007°11'0 0.0
2019-Jul-19 07:00N 62°06' E 007°11'0 0.0
2019-Jul-19 06:30N 62°06' E 007°11'0 0.0
2019-Jul-19 05:59N 62°06' E 007°11'0 0.0
2019-Jul-19 05:29N 62°06' E 007°11'0 0.0
2019-Jul-19 04:59N 62°06' E 007°11'0 0.0
2019-Jul-19 04:29N 62°06' E 007°11'0 0.0
2019-Jul-19 03:59N 62°06' E 007°11'0 0.0
2019-Jul-19 03:30N 62°06' E 007°11'0 0.0
2019-Jul-19 03:00N 62°06' E 007°11'0 0.0
2019-Jul-19 02:30N 62°06' E 007°11'0 0.0
2019-Jul-19 02:00N 62°06' E 007°11'0 0.0
2019-Jul-19 01:30N 62°06' E 007°11'0 0.0
2019-Jul-19 01:00N 62°06' E 007°11'0 0.0
2019-Jul-19 00:30N 62°06' E 007°11'0 0.0
2019-Jul-19 00:00N 62°06' E 007°11'0 0.0
2019-Jul-18 23:30N 62°06' E 007°11'0 0.0
2019-Jul-18 23:00N 62°06' E 007°11'0 0.0
2019-Jul-18 22:30N 62°06' E 007°11'0 0.0
2019-Jul-18 22:00N 62°06' E 007°11'0 0.0
2019-Jul-18 21:30N 62°06' E 007°11'0 0.0
2019-Jul-18 21:00N 62°06' E 007°11'0 0.0
2019-Jul-18 20:30N 62°06' E 007°11'0 0.0
2019-Jul-18 20:00N 62°06' E 007°11'1 1.7
2019-Jul-18 19:30N 62°07' E 007°10'5 9.7
2019-Jul-18 19:00N 62°06' E 006°60'612.3
2019-Jul-18 18:30N 62°12' E 007°02'714.0
2019-Jul-18 18:00N 62°19' E 006°58'714.2
2019-Jul-18 17:30N 62°26' E 006°54'714.2
2019-Jul-18 17:00N 62°27' E 006°39'714.9
2019-Jul-18 16:30N 62°24' E 006°24'714.6
2019-Jul-18 16:00N 62°23' E 006°08'611.3
2019-Jul-18 15:30N 62°28' E 006°04'3 4.7
2019-Jul-18 14:58N 62°29' E 006°09'0 0.0
2019-Jul-18 14:28N 62°29' E 006°09'0 0.0
2019-Jul-18 13:58N 62°29' E 006°09'0 0.0
2019-Jul-18 13:28N 62°29' E 006°09'0 0.0
2019-Jul-18 12:57N 62°29' E 006°09'0 0.0
2019-Jul-18 12:30N 62°29' E 006°09'0 0.0
2019-Jul-18 12:00N 62°29' E 006°09'0 0.0
2019-Jul-18 11:30N 62°29' E 006°09'0 0.0
2019-Jul-18 11:00N 62°29' E 006°09'0 0.0
2019-Jul-18 10:30N 62°29' E 006°09'0 0.0
2019-Jul-18 10:00N 62°29' E 006°09'0 0.0
2019-Jul-18 09:30N 62°29' E 006°09'0 0.0
2019-Jul-18 09:00N 62°29' E 006°09'0 0.0
2019-Jul-18 08:30N 62°29' E 006°09'0 0.0
2019-Jul-18 08:00N 62°29' E 006°09'0 0.0
2019-Jul-18 07:30N 62°29' E 006°09'0 0.0
2019-Jul-18 07:00N 62°29' E 006°09'0 0.0
2019-Jul-18 06:30N 62°29' E 006°09'0 0.0
2019-Jul-18 06:00N 62°29' E 006°09'0 0.7
2019-Jul-18 05:30N 62°29' E 006°08'2 4.2
2019-Jul-18 05:00N 62°28' E 006°04'4 8.7
2019-Jul-18 04:30N 62°27' E 005°55'4 7.3
2019-Jul-18 04:00N 62°28' E 005°47'5 9.6
2019-Jul-18 03:28N 62°30' E 005°37'510.8
2019-Jul-18 03:00N 62°30' E 005°26'510.1
2019-Jul-18 02:30N 62°27' E 005°17'612.5
2019-Jul-18 02:00N 62°22' E 005°09'713.1
2019-Jul-18 01:30N 62°17' E 005°00'612.8
2019-Jul-18 01:00N 62°12' E 004°52'612.5
2019-Jul-18 00:30N 62°06' E 004°45'612.7
2019-Jul-18 00:00N 62°01' E 004°40'178.5
2019-Jul-18 00:00N 62°00' E 004°42'613.0 1008.910.8 13.510.4
2019-Jul-17 23:30N 61°55' E 004°35'713.2
2019-Jul-17 22:59N 61°48' E 004°30'713.4
2019-Jul-17 22:30N 61°42' E 004°27'713.4
2019-Jul-17 22:00N 61°35' E 004°23'713.4
2019-Jul-17 21:29N 61°29' E 004°21'713.4
2019-Jul-17 20:58N 61°22' E 004°19'613.5
2019-Jul-17 20:30N 61°15' E 004°18'713.7
2019-Jul-17 20:00N 61°09' E 004°17'713.3
2019-Jul-17 19:30N 61°02' E 004°17'713.5
2019-Jul-17 19:00N 60°55' E 004°21'714.1
2019-Jul-17 18:30N 60°49' E 004°25'612.9
2019-Jul-17 18:00N 60°46' E 004°36'611.3
2019-Jul-17 17:30N 60°43' E 004°47'612.5
2019-Jul-17 17:00N 60°38' E 004°52'713.7
2019-Jul-17 16:30N 60°31' E 004°57'713.6
2019-Jul-17 16:00N 60°25' E 005°04'510.1
2019-Jul-17 15:30N 60°24' E 005°14'2 4.9
2019-Jul-17 15:00N 60°24' E 005°19'0 0.0
2019-Jul-17 14:30N 60°24' E 005°19'0 0.0
2019-Jul-17 14:00N 60°24' E 005°19'0 0.0
2019-Jul-17 13:30N 60°24' E 005°19'0 0.0
2019-Jul-17 13:00N 60°24' E 005°19'0 0.0
2019-Jul-17 12:30N 60°24' E 005°19'0 0.0
2019-Jul-17 12:00N 60°24' E 005°19'0 0.0
2019-Jul-17 11:30N 60°24' E 005°19'0 0.0
2019-Jul-17 11:00N 60°24' E 005°19'0 0.0
2019-Jul-17 10:30N 60°24' E 005°19'0 0.0
2019-Jul-17 10:00N 60°24' E 005°19'0 0.0
2019-Jul-17 09:30N 60°24' E 005°19'0 0.0
2019-Jul-17 09:00N 60°24' E 005°19'0 0.0
2019-Jul-17 08:30N 60°24' E 005°19'0 0.0
2019-Jul-17 08:00N 60°24' E 005°19'0 0.0
2019-Jul-17 07:30N 60°24' E 005°19'0 0.0
2019-Jul-17 07:00N 60°24' E 005°19'0 0.0
2019-Jul-17 06:30N 60°24' E 005°19'1 2.6
2019-Jul-17 06:00N 60°24' E 005°16'4 8.7
2019-Jul-17 05:30N 60°21' E 005°10'510.6
2019-Jul-17 05:00N 60°16' E 005°09'510.7
2019-Jul-17 04:30N 60°10' E 005°09'510.2
2019-Jul-17 04:00N 60°08' E 004°60'612.3
2019-Jul-17 03:30N 60°03' E 004°52'815.4
2019-Jul-17 03:00N 59°56' E 004°46'815.9
2019-Jul-17 02:30N 59°49' E 004°39'815.8
2019-Jul-17 02:00N 59°42' E 004°34'815.8
2019-Jul-17 01:30N 59°34' E 004°29'815.9
2019-Jul-17 01:00N 59°27' E 004°25'815.7
2019-Jul-17 00:30N 59°19' E 004°20'815.5
2019-Jul-17 00:00N 59°12' E 004°15'815.8
2019-Jul-16 23:30N 59°04' E 004°11'815.9
2019-Jul-16 23:00N 58°56' E 004°10'816.0
2019-Jul-16 22:30N 58°48' E 004°10'816.5
2019-Jul-16 22:00N 58°40' E 004°09'816.4
2019-Jul-16 21:30N 58°32' E 004°07'816.5
2019-Jul-16 21:00N 58°24' E 004°07'816.3
2019-Jul-16 20:30N 58°15' E 004°06'816.1
2019-Jul-16 20:00N 58°07' E 004°05'816.2
2019-Jul-16 19:30N 57°59' E 004°04'816.3
2019-Jul-16 19:00N 57°51' E 004°03'816.5
2019-Jul-16 18:30N 57°43' E 004°02'816.8
2019-Jul-16 18:00N 57°35' E 004°01'816.6
2019-Jul-16 17:30N 57°26' E 004°00'816.4
2019-Jul-16 17:00N 57°18' E 004°00'816.4
2019-Jul-16 16:30N 57°10' E 003°58'816.4
2019-Jul-16 16:00N 57°02' E 003°57'916.4
2019-Jul-16 15:26N 56°53' E 003°55'716.2
2019-Jul-16 15:00N 56°46' E 003°54'816.1
2019-Jul-16 14:29N 56°37' E 003°53'816.0
2019-Jul-16 14:00N 56°30' E 003°52'815.9
2019-Jul-16 13:30N 56°22' E 003°51'815.9
2019-Jul-16 13:00N 56°14' E 003°50'815.9
2019-Jul-16 12:30N 56°06' E 003°49'816.0
2019-Jul-16 12:00N 55°58' E 003°48'815.9
2019-Jul-16 11:29N 55°50' E 003°47'1015.9
2019-Jul-16 10:53N 55°40' E 003°45'1516.0
2019-Jul-16 09:58N 55°26' E 003°42'1016.0
2019-Jul-16 09:20N 55°16' E 003°40'6916.1
2019-Jul-16 05:04N 54°07' E 003°29'1715.5
2019-Jul-16 03:57N 53°50' E 003°22'816.4
2019-Jul-16 03:29N 53°45' E 003°13'916.4
2019-Jul-16 02:56N 53°37' E 003°06'916.7
2019-Jul-16 02:26N 53°29' E 002°60'716.9
2019-Jul-16 02:00N 53°23' E 002°55'916.9
2019-Jul-16 01:29N 53°15' E 002°48'816.9
2019-Jul-16 01:00N 53°07' E 002°42'917.0
2019-Jul-16 00:27N 52°58' E 002°41'916.7
2019-Jul-15 23:56N 52°50' E 002°39'716.4
2019-Jul-15 23:30N 52°43' E 002°37'816.0
2019-Jul-15 23:00N 52°35' E 002°34'815.2
2019-Jul-15 22:30N 52°28' E 002°31'815.1
2019-Jul-15 22:00N 52°21' E 002°25'714.8
2019-Jul-15 21:30N 52°14' E 002°22'714.3
2019-Jul-15 21:00N 52°07' E 002°20'714.3
2019-Jul-15 20:29N 51°59' E 002°17'714.1
2019-Jul-15 19:59N 51°52' E 002°13'714.0
2019-Jul-15 19:30N 51°46' E 002°10'714.0
2019-Jul-15 19:01N 51°41' E 002°03'714.2
2019-Jul-15 18:30N 51°35' E 001°56'714.0
2019-Jul-15 18:01N 51°30' E 001°49'714.9
2019-Jul-15 17:31N 51°23' E 001°44'714.7
2019-Jul-15 17:01N 51°16' E 001°40'714.1
2019-Jul-15 16:30N 51°10' E 001°34'612.4
2019-Jul-15 16:00N 51°07' E 001°26'4 6.6
2019-Jul-15 15:22N 51°07' E 001°19'0 0.0
2019-Jul-15 06:36N 51°07' E 001°19'0 1.6
2019-Jul-15 06:27N 51°07' E 001°19'4 8.2
2019-Jul-15 06:00N 51°08' E 001°25'4 9.0
2019-Jul-15 05:30N 51°09' E 001°32'611.8
2019-Jul-15 05:00N 51°12' E 001°40'611.8
2019-Jul-15 04:30N 51°16' E 001°46'611.6
2019-Jul-15 04:00N 51°21' E 001°51'510.6
2019-Jul-15 03:30N 51°26' E 001°55'5 9.3
2019-Jul-15 03:00N 51°29' E 001°60'4261.0
2019-Jul-15 03:00N 51°30' E 002°06'3 5.3 010 / 181022.010.8 15.011.7
2019-Jul-15 02:30N 51°32' E 002°04'4 8.3
2019-Jul-15 02:00N 51°35' E 002°09'4 8.2
2019-Jul-15 01:30N 51°39' E 002°13'6 8.0
2019-Jul-15 00:45N 51°43' E 002°20'2 7.8
2019-Jul-15 00:30N 51°44' E 002°22'4 7.9
2019-Jul-14 23:56N 51°48' E 002°27'6 8.0
2019-Jul-14 23:13N 51°52' E 002°33'18 9.1
2019-Jul-14 21:17N 52°09' E 002°37'310.5
2019-Jul-14 20:57N 52°13' E 002°37'510.8
2019-Jul-14 20:28N 52°18' E 002°38'511.0
2019-Jul-14 20:00N 52°23' E 002°38'5336.4
2019-Jul-14 20:00N 52°18' E 002°36'1121.8 360 / 111022.910.8 15.013.814.0
2019-Jul-14 19:30N 52°29' E 002°38'611.2
2019-Jul-14 18:58N 52°35' E 002°38'511.2
2019-Jul-14 18:30N 52°40' E 002°38'711.1
2019-Jul-14 17:52N 52°47' E 002°38'410.8
2019-Jul-14 17:30N 52°51' E 002°38'810.3
2019-Jul-14 16:42N 52°59' E 002°38'31 8.8
2019-Jul-14 13:09N 53°29' E 002°53'5 8.7
2019-Jul-14 12:34N 53°34' E 002°56'1 8.9
2019-Jul-14 12:27N 53°35' E 002°56'6 9.1
2019-Jul-14 11:47N 53°41' E 002°58'3 8.0
2019-Jul-14 11:26N 53°44' E 002°57'54 9.1
2019-Jul-14 05:31N 54°09' E 001°37'110.0
2019-Jul-14 05:27N 54°09' E 001°36'4 9.9
2019-Jul-14 05:00N 54°11' E 001°29'510.0
2019-Jul-14 04:30N 54°13' E 001°21'510.0
2019-Jul-14 03:59N 54°16' E 001°13'1515.0
2019-Jul-14 03:00N 54°18' E 000°48'51 8.5 350 / 181023.310.8 15.013.2
2019-Jul-13 21:00N 54°42' W 000°30'1811.1 010 / 81024.110.8 15.113.713.0
2019-Jul-13 19:22N 54°53' W 000°55'3 8.9
2019-Jul-13 19:00N 54°54' W 000°60'4 9.1
2019-Jul-13 18:30N 54°57' W 001°07'5 9.1
2019-Jul-13 18:00N 54°59' W 001°14'4 8.9
2019-Jul-13 17:30N 55°01' W 001°21'3 6.9
2019-Jul-13 17:01N 54°60' W 001°27'1 1.2
2019-Jul-13 16:28N 54°59' W 001°27'0 0.0
2019-Jul-13 15:58N 54°59' W 001°27'0 0.0
2019-Jul-13 15:28N 54°59' W 001°27'0 0.0
2019-Jul-13 14:58N 54°59' W 001°27'0 0.0
2019-Jul-13 14:28N 54°59' W 001°27'0 0.0
2019-Jul-13 13:58N 54°59' W 001°27'0 0.0
2019-Jul-13 13:28N 54°59' W 001°27'0 0.0
2019-Jul-13 12:58N 54°59' W 001°27'0 0.0
2019-Jul-13 12:28N 54°59' W 001°27'0 0.0
2019-Jul-13 11:58N 54°59' W 001°27'0 0.0
2019-Jul-13 11:19N 54°59' W 001°27'0 0.0
2019-Jul-13 10:52N 54°59' W 001°27'0 0.0
2019-Jul-13 10:22N 54°59' W 001°27'0 0.0
2019-Jul-13 09:52N 54°59' W 001°27'0 0.0
2019-Jul-13 09:22N 54°59' W 001°27'0 0.0
2019-Jul-13 08:52N 54°59' W 001°27'0 0.4
2019-Jul-13 08:30N 54°59' W 001°27'2 3.2
2019-Jul-13 08:00N 55°01' W 001°26'3 6.7
2019-Jul-13 07:30N 55°02' W 001°20'4 8.8
2019-Jul-13 07:00N 55°06' W 001°20'713.3
2019-Jul-13 06:30N 55°13' W 001°20'612.9
2019-Jul-13 06:00N 55°19' W 001°20'713.1
2019-Jul-13 05:30N 55°26' W 001°22'714.5
2019-Jul-13 05:01N 55°33' W 001°24'714.5
2019-Jul-13 04:31N 55°40' W 001°26'714.5
2019-Jul-13 04:01N 55°46' W 001°34'714.8
2019-Jul-13 03:30N 55°52' W 001°42'714.8
2019-Jul-13 03:01N 55°58' W 001°50'814.9
2019-Jul-13 02:27N 56°04' W 001°59'1514.2
2019-Jul-13 01:23N 56°17' W 002°12'615.0
2019-Jul-13 01:00N 56°20' W 002°21'713.4
2019-Jul-13 00:30N 56°25' W 002°30'510.9
2019-Jul-13 00:00N 56°29' W 002°37'5 9.5
2019-Jul-12 23:30N 56°27' W 002°45'6 8.5
2019-Jul-12 22:45N 56°28' W 002°57'0 0.0
2019-Jul-12 21:01N 56°28' W 002°57'0 0.0
2019-Jul-12 20:46N 56°28' W 002°57'0 0.0
2019-Jul-12 15:10N 56°28' W 002°57'0 0.0
2019-Jul-12 14:58N 56°28' W 002°57'0 0.0
2019-Jul-12 14:16N 56°28' W 002°57'0 0.0
2019-Jul-12 13:46N 56°28' W 002°57'0 0.0
2019-Jul-12 13:19N 56°28' W 002°57'0 0.0
2019-Jul-12 12:07N 56°28' W 002°57'0 0.0
2019-Jul-12 11:07N 56°28' W 002°57'0 0.0
2019-Jul-12 10:37N 56°28' W 002°57'0 0.1
2019-Jul-12 10:21N 56°28' W 002°57'5 6.9
2019-Jul-12 09:34N 56°27' W 002°47'110.0
2019-Jul-12 09:30N 56°27' W 002°46'5 9.1
2019-Jul-12 09:00N 56°28' W 002°38'510.1
2019-Jul-12 08:30N 56°31' W 002°30'510.4
2019-Jul-12 08:00N 56°36' W 002°27'25 9.5
2019-Jul-12 05:24N 56°54' W 001°57'411.1
2019-Jul-12 05:00N 56°57' W 001°51'  
Track history (hours):
 
Tides and Currents Weather Stations Pressure Air Temp Water Temp Dewpoint Dewpoint Depression Visibility Wind Speed Wind Dir Waves Ship Positions

Saga Sapphire

Last reported at 2019-Jul-22 05:00 UTC. Time now 2019-Jul-22 05:24 UTC.
Position N 51°12' E 001°40'.

Length 200 m; draft 8.4 m.

Type: Passenger vessel. MMSI: 256208000.

Date/timePositionNaut miles runAvg speedWind from/ knotsBaromVisibWave heightAir tempDewpointWater temp
2019-Jul-22 05:00N 51°12' E 001°40'5 9.4
2019-Jul-22 04:30N 51°15' E 001°46'5 9.4
2019-Jul-22 04:00N 51°19' E 001°50'5 9.6
2019-Jul-22 03:30N 51°23' E 001°52'510.1
2019-Jul-22 03:00N 51°28' E 001°57'510.9
2019-Jul-22 02:30N 51°31' E 002°03'611.4
2019-Jul-22 02:00N 51°36' E 002°09'2146.8
2019-Jul-22 02:00N 51°36' E 002°06'715.2 190 / 211021.410.8 17.714.8
2019-Jul-22 01:30N 51°40' E 002°16'612.5
2019-Jul-22 01:00N 51°44' E 002°23'613.0
2019-Jul-22 00:30N 51°49' E 002°31'713.1
2019-Jul-22 00:00N 51°55' E 002°35'714.4
2019-Jul-21 23:30N 52°02' E 002°36'714.5
2019-Jul-21 23:00N 52°09' E 002°38'714.4
2019-Jul-21 22:30N 52°16' E 002°39'713.9
2019-Jul-21 22:00N 52°23' E 002°38'713.5
2019-Jul-21 21:30N 52°30' E 002°38'713.1
2019-Jul-21 21:00N 52°37' E 002°38'612.8
2019-Jul-21 20:30N 52°43' E 002°38'612.5
2019-Jul-21 20:00N 52°49' E 002°38'612.0
2019-Jul-21 19:30N 52°55' E 002°38'611.7
2019-Jul-21 19:00N 53°01' E 002°38'611.4
2019-Jul-21 18:30N 53°07' E 002°39'611.3
2019-Jul-21 18:00N 53°12' E 002°42'611.4
2019-Jul-21 17:30N 53°17' E 002°45'611.5
2019-Jul-21 17:00N 53°23' E 002°49'611.8
2019-Jul-21 16:30N 53°28' E 002°52'612.1
2019-Jul-21 16:00N 53°34' E 002°55'612.5
2019-Jul-21 15:30N 53°40' E 002°58'9412.5
2019-Jul-21 08:00N 55°12' E 003°30'9012.9 240 / 141014.710.8 17.314.513.0
2019-Jul-21 01:00N 56°42' E 003°42'7114.1 200 / 121007.1 2.2 15.015.0
2019-Jul-20 19:55N 57°53' E 003°52'1212.3
2019-Jul-20 18:58N 58°05' E 003°48'612.8
2019-Jul-20 18:30N 58°10' E 003°52'712.7
2019-Jul-20 17:56N 58°17' E 003°55'613.1
2019-Jul-20 17:30N 58°23' E 003°55'713.4
2019-Jul-20 16:57N 58°30' E 003°56'713.4
2019-Jul-20 16:28N 58°37' E 003°56'613.1
2019-Jul-20 16:00N 58°43' E 003°59'713.1
2019-Jul-20 15:30N 58°49' E 004°01'613.0
2019-Jul-20 15:00N 58°56' E 004°02'612.7
2019-Jul-20 14:30N 59°02' E 004°01'612.0
2019-Jul-20 14:00N 59°08' E 004°01'611.7
2019-Jul-20 13:30N 59°14' E 004°01'611.2
2019-Jul-20 12:59N 59°20' E 004°01'511.1
2019-Jul-20 12:30N 59°25' E 004°01'611.5
2019-Jul-20 11:59N 59°31' E 004°01'611.7
2019-Jul-20 11:30N 59°37' E 004°01'612.0
2019-Jul-20 10:59N 59°43' E 004°01'612.1
2019-Jul-20 10:30N 59°49' E 004°01'612.1
2019-Jul-20 10:00N 59°55' E 004°01'612.3
2019-Jul-20 09:30N 60°01' E 004°01'612.5
2019-Jul-20 09:00N 60°07' E 004°01'612.5
2019-Jul-20 08:30N 60°13' E 004°01'612.6
2019-Jul-20 08:00N 60°20' E 004°01'612.9
2019-Jul-20 07:30N 60°26' E 004°01'611.3
2019-Jul-20 07:00N 60°32' E 004°01'612.2
2019-Jul-20 06:30N 60°38' E 004°01'713.7
2019-Jul-20 06:00N 60°45' E 004°01'713.3
2019-Jul-20 05:30N 60°51' E 004°01'713.2
2019-Jul-20 05:00N 60°58' E 004°02'713.2
2019-Jul-20 04:30N 61°05' E 004°01'713.2
2019-Jul-20 04:00N 61°11' E 004°01'713.2
2019-Jul-20 03:30N 61°18' E 004°02'713.1
2019-Jul-20 03:00N 61°24' E 004°02'712.8
2019-Jul-20 02:29N 61°31' E 004°06'713.2
2019-Jul-20 01:59N 61°36' E 004°12'613.3
2019-Jul-20 01:30N 61°42' E 004°18'713.4
2019-Jul-20 01:00N 61°48' E 004°24'088.8
2019-Jul-20 01:00N 61°48' E 004°24'714.8 150 / 171010.310.8 13.012.3
2019-Jul-20 00:30N 61°55' E 004°31'713.9
2019-Jul-19 23:59N 62°01' E 004°37'713.7
2019-Jul-19 23:30N 62°07' E 004°44'713.6
2019-Jul-19 23:00N 62°12' E 004°53'713.6
2019-Jul-19 22:30N 62°18' E 005°02'613.3
2019-Jul-19 22:00N 62°23' E 005°10'713.1
2019-Jul-19 21:29N 62°29' E 005°18'612.5
2019-Jul-19 21:00N 62°30' E 005°31'021.8
2019-Jul-19 21:00N 62°30' E 005°30'714.1 090 / 51010.810.8 14.012.2
2019-Jul-19 20:30N 62°30' E 005°45'713.8
2019-Jul-19 20:00N 62°27' E 005°58'511.0
2019-Jul-19 19:30N 62°23' E 006°08'714.6
2019-Jul-19 19:00N 62°24' E 006°23'815.1
2019-Jul-19 18:30N 62°27' E 006°39'714.2
2019-Jul-19 18:00N 62°26' E 006°54'714.1
2019-Jul-19 17:30N 62°19' E 006°58'714.0
2019-Jul-19 17:00N 62°12' E 007°02'612.6
2019-Jul-19 16:30N 62°06' E 006°59'510.2
2019-Jul-19 16:00N 62°07' E 007°10'1 1.7
2019-Jul-19 15:29N 62°06' E 007°11'0 0.1
2019-Jul-19 14:59N 62°06' E 007°11'0 0.0
2019-Jul-19 14:30N 62°06' E 007°11'0 0.0
2019-Jul-19 13:59N 62°06' E 007°11'0 0.0
2019-Jul-19 13:29N 62°06' E 007°11'0 0.0
2019-Jul-19 13:00N 62°06' E 007°11'0 0.0
2019-Jul-19 12:25N 62°06' E 007°11'0 0.0
2019-Jul-19 11:58N 62°06' E 007°11'0 0.0
2019-Jul-19 11:30N 62°06' E 007°11'0 0.0
2019-Jul-19 11:00N 62°06' E 007°11'0 0.0
2019-Jul-19 10:29N 62°06' E 007°11'0 0.0
2019-Jul-19 10:00N 62°06' E 007°11'0 0.0
2019-Jul-19 09:30N 62°06' E 007°11'0 0.0
2019-Jul-19 09:00N 62°06' E 007°11'0 0.0
2019-Jul-19 08:30N 62°06' E 007°11'0 0.0
2019-Jul-19 08:00N 62°06' E 007°11'0 0.0
2019-Jul-19 07:30N 62°06' E 007°11'0 0.0
2019-Jul-19 07:00N 62°06' E 007°11'0 0.0
2019-Jul-19 06:30N 62°06' E 007°11'0 0.0
2019-Jul-19 05:59N 62°06' E 007°11'0 0.0
2019-Jul-19 05:29N 62°06' E 007°11'0 0.0
2019-Jul-19 04:59N 62°06' E 007°11'0 0.0
2019-Jul-19 04:29N 62°06' E 007°11'0 0.0
2019-Jul-19 03:59N 62°06' E 007°11'0 0.0
2019-Jul-19 03:30N 62°06' E 007°11'0 0.0
2019-Jul-19 03:00N 62°06' E 007°11'0 0.0
2019-Jul-19 02:30N 62°06' E 007°11'0 0.0
2019-Jul-19 02:00N 62°06' E 007°11'0 0.0
2019-Jul-19 01:30N 62°06' E 007°11'0 0.0
2019-Jul-19 01:00N 62°06' E 007°11'0 0.0
2019-Jul-19 00:30N 62°06' E 007°11'0 0.0
2019-Jul-19 00:00N 62°06' E 007°11'0 0.0
2019-Jul-18 23:30N 62°06' E 007°11'0 0.0
2019-Jul-18 23:00N 62°06' E 007°11'0 0.0
2019-Jul-18 22:30N 62°06' E 007°11'0 0.0
2019-Jul-18 22:00N 62°06' E 007°11'0 0.0
2019-Jul-18 21:30N 62°06' E 007°11'0 0.0
2019-Jul-18 21:00N 62°06' E 007°11'0 0.0
2019-Jul-18 20:30N 62°06' E 007°11'0 0.0
2019-Jul-18 20:00N 62°06' E 007°11'1 1.7
2019-Jul-18 19:30N 62°07' E 007°10'5 9.7
2019-Jul-18 19:00N 62°06' E 006°60'612.3
2019-Jul-18 18:30N 62°12' E 007°02'714.0
2019-Jul-18 18:00N 62°19' E 006°58'714.2
2019-Jul-18 17:30N 62°26' E 006°54'714.2
2019-Jul-18 17:00N 62°27' E 006°39'714.9
2019-Jul-18 16:30N 62°24' E 006°24'714.6
2019-Jul-18 16:00N 62°23' E 006°08'611.3
2019-Jul-18 15:30N 62°28' E 006°04'3 4.7
2019-Jul-18 14:58N 62°29' E 006°09'0 0.0
2019-Jul-18 14:28N 62°29' E 006°09'0 0.0
2019-Jul-18 13:58N 62°29' E 006°09'0 0.0
2019-Jul-18 13:28N 62°29' E 006°09'0 0.0
2019-Jul-18 12:57N 62°29' E 006°09'0 0.0
2019-Jul-18 12:30N 62°29' E 006°09'0 0.0
2019-Jul-18 12:00N 62°29' E 006°09'0 0.0
2019-Jul-18 11:30N 62°29' E 006°09'0 0.0
2019-Jul-18 11:00N 62°29' E 006°09'0 0.0
2019-Jul-18 10:30N 62°29' E 006°09'0 0.0
2019-Jul-18 10:00N 62°29' E 006°09'0 0.0
2019-Jul-18 09:30N 62°29' E 006°09'0 0.0
2019-Jul-18 09:00N 62°29' E 006°09'0 0.0
2019-Jul-18 08:30N 62°29' E 006°09'0 0.0
2019-Jul-18 08:00N 62°29' E 006°09'0 0.0
2019-Jul-18 07:30N 62°29' E 006°09'0 0.0
2019-Jul-18 07:00N 62°29' E 006°09'0 0.0
2019-Jul-18 06:30N 62°29' E 006°09'0 0.0
2019-Jul-18 06:00N 62°29' E 006°09'0 0.7
2019-Jul-18 05:30N 62°29' E 006°08'2 4.2
2019-Jul-18 05:00N 62°28' E 006°04'4 8.7
2019-Jul-18 04:30N 62°27' E 005°55'4 7.3
2019-Jul-18 04:00N 62°28' E 005°47'5 9.6
2019-Jul-18 03:28N 62°30' E 005°37'510.8
2019-Jul-18 03:00N 62°30' E 005°26'510.1
2019-Jul-18 02:30N 62°27' E 005°17'612.5
2019-Jul-18 02:00N 62°22' E 005°09'713.1
2019-Jul-18 01:30N 62°17' E 005°00'612.8
2019-Jul-18 01:00N 62°12' E 004°52'612.5
2019-Jul-18 00:30N 62°06' E 004°45'612.7
2019-Jul-18 00:00N 62°01' E 004°40'178.5
2019-Jul-18 00:00N 62°00' E 004°42'613.0 1008.910.8 13.510.4
2019-Jul-17 23:30N 61°55' E 004°35'713.2
2019-Jul-17 22:59N 61°48' E 004°30'713.4
2019-Jul-17 22:30N 61°42' E 004°27'713.4
2019-Jul-17 22:00N 61°35' E 004°23'713.4
2019-Jul-17 21:29N 61°29' E 004°21'713.4
2019-Jul-17 20:58N 61°22' E 004°19'613.5
2019-Jul-17 20:30N 61°15' E 004°18'713.7
2019-Jul-17 20:00N 61°09' E 004°17'713.3
2019-Jul-17 19:30N 61°02' E 004°17'713.5
2019-Jul-17 19:00N 60°55' E 004°21'714.1
2019-Jul-17 18:30N 60°49' E 004°25'612.9
2019-Jul-17 18:00N 60°46' E 004°36'611.3
2019-Jul-17 17:30N 60°43' E 004°47'612.5
2019-Jul-17 17:00N 60°38' E 004°52'713.7
2019-Jul-17 16:30N 60°31' E 004°57'713.6
2019-Jul-17 16:00N 60°25' E 005°04'510.1
2019-Jul-17 15:30N 60°24' E 005°14'2 4.9
2019-Jul-17 15:00N 60°24' E 005°19'0 0.0
2019-Jul-17 14:30N 60°24' E 005°19'0 0.0
2019-Jul-17 14:00N 60°24' E 005°19'0 0.0
2019-Jul-17 13:30N 60°24' E 005°19'0 0.0
2019-Jul-17 13:00N 60°24' E 005°19'0 0.0
2019-Jul-17 12:30N 60°24' E 005°19'0 0.0
2019-Jul-17 12:00N 60°24' E 005°19'0 0.0
2019-Jul-17 11:30N 60°24' E 005°19'0 0.0
2019-Jul-17 11:00N 60°24' E 005°19'0 0.0
2019-Jul-17 10:30N 60°24' E 005°19'0 0.0
2019-Jul-17 10:00N 60°24' E 005°19'0 0.0
2019-Jul-17 09:30N 60°24' E 005°19'0 0.0
2019-Jul-17 09:00N 60°24' E 005°19'0 0.0
2019-Jul-17 08:30N 60°24' E 005°19'0 0.0
2019-Jul-17 08:00N 60°24' E 005°19'0 0.0
2019-Jul-17 07:30N 60°24' E 005°19'0 0.0
2019-Jul-17 07:00N 60°24' E 005°19'0 0.0
2019-Jul-17 06:30N 60°24' E 005°19'1 2.6
2019-Jul-17 06:00N 60°24' E 005°16'4 8.7
2019-Jul-17 05:30N 60°21' E 005°10'510.6
2019-Jul-17 05:00N 60°16' E 005°09'510.7
2019-Jul-17 04:30N 60°10' E 005°09'510.2
2019-Jul-17 04:00N 60°08' E 004°60'612.3
2019-Jul-17 03:30N 60°03' E 004°52'815.4
2019-Jul-17 03:00N 59°56' E 004°46'815.9
2019-Jul-17 02:30N 59°49' E 004°39'815.8
2019-Jul-17 02:00N 59°42' E 004°34'815.8
2019-Jul-17 01:30N 59°34' E 004°29'815.9
2019-Jul-17 01:00N 59°27' E 004°25'815.7
2019-Jul-17 00:30N 59°19' E 004°20'815.5
2019-Jul-17 00:00N 59°12' E 004°15'815.8
2019-Jul-16 23:30N 59°04' E 004°11'815.9
2019-Jul-16 23:00N 58°56' E 004°10'816.0
2019-Jul-16 22:30N 58°48' E 004°10'816.5
2019-Jul-16 22:00N 58°40' E 004°09'816.4
2019-Jul-16 21:30N 58°32' E 004°07'816.5
2019-Jul-16 21:00N 58°24' E 004°07'816.3
2019-Jul-16 20:30N 58°15' E 004°06'816.1
2019-Jul-16 20:00N 58°07' E 004°05'816.2
2019-Jul-16 19:30N 57°59' E 004°04'816.3
2019-Jul-16 19:00N 57°51' E 004°03'816.5
2019-Jul-16 18:30N 57°43' E 004°02'816.8
2019-Jul-16 18:00N 57°35' E 004°01'816.6
2019-Jul-16 17:30N 57°26' E 004°00'816.4
2019-Jul-16 17:00N 57°18' E 004°00'816.4
2019-Jul-16 16:30N 57°10' E 003°58'816.4
2019-Jul-16 16:00N 57°02' E 003°57'916.4
2019-Jul-16 15:26N 56°53' E 003°55'716.2
2019-Jul-16 15:00N 56°46' E 003°54'816.1
2019-Jul-16 14:29N 56°37' E 003°53'816.0
2019-Jul-16 14:00N 56°30' E 003°52'815.9
2019-Jul-16 13:30N 56°22' E 003°51'815.9
2019-Jul-16 13:00N 56°14' E 003°50'815.9
2019-Jul-16 12:30N 56°06' E 003°49'816.0
2019-Jul-16 12:00N 55°58' E 003°48'815.9
2019-Jul-16 11:29N 55°50' E 003°47'1015.9
2019-Jul-16 10:53N 55°40' E 003°45'1516.0
2019-Jul-16 09:58N 55°26' E 003°42'1016.0
2019-Jul-16 09:20N 55°16' E 003°40'6916.1
2019-Jul-16 05:04N 54°07' E 003°29'1715.5
2019-Jul-16 03:57N 53°50' E 003°22'816.4
2019-Jul-16 03:29N 53°45' E 003°13'916.4
2019-Jul-16 02:56N 53°37' E 003°06'916.7
2019-Jul-16 02:26N 53°29' E 002°60'716.9
2019-Jul-16 02:00N 53°23' E 002°55'916.9
2019-Jul-16 01:29N 53°15' E 002°48'816.9
2019-Jul-16 01:00N 53°07' E 002°42'917.0
2019-Jul-16 00:27N 52°58' E 002°41'916.7
2019-Jul-15 23:56N 52°50' E 002°39'716.4
2019-Jul-15 23:30N 52°43' E 002°37'816.0
2019-Jul-15 23:00N 52°35' E 002°34'815.2
2019-Jul-15 22:30N 52°28' E 002°31'815.1
2019-Jul-15 22:00N 52°21' E 002°25'714.8
2019-Jul-15 21:30N 52°14' E 002°22'714.3
2019-Jul-15 21:00N 52°07' E 002°20'714.3
2019-Jul-15 20:29N 51°59' E 002°17'714.1
2019-Jul-15 19:59N 51°52' E 002°13'714.0
2019-Jul-15 19:30N 51°46' E 002°10'714.0
2019-Jul-15 19:01N 51°41' E 002°03'714.2
2019-Jul-15 18:30N 51°35' E 001°56'714.0
2019-Jul-15 18:01N 51°30' E 001°49'714.9
2019-Jul-15 17:31N 51°23' E 001°44'714.7
2019-Jul-15 17:01N 51°16' E 001°40'714.1
2019-Jul-15 16:30N 51°10' E 001°34'612.4
2019-Jul-15 16:00N 51°07' E 001°26'4 6.6
2019-Jul-15 15:22N 51°07' E 001°19'0 0.0
2019-Jul-15 06:36N 51°07' E 001°19'0 1.6
2019-Jul-15 06:27N 51°07' E 001°19'4 8.2
2019-Jul-15 06:00N 51°08' E 001°25'4 9.0
2019-Jul-15 05:30N 51°09' E 001°32'611.8
2019-Jul-15 05:00N 51°12' E 001°40'611.8
2019-Jul-15 04:30N 51°16' E 001°46'611.6
2019-Jul-15 04:00N 51°21' E 001°51'510.6
2019-Jul-15 03:30N 51°26' E 001°55'5 9.3
2019-Jul-15 03:00N 51°29' E 001°60'4261.0
2019-Jul-15 03:00N 51°30' E 002°06'3 5.3 010 / 181022.010.8 15.011.7
2019-Jul-15 02:30N 51°32' E 002°04'4 8.3
2019-Jul-15 02:00N 51°35' E 002°09'4 8.2
2019-Jul-15 01:30N 51°39' E 002°13'6 8.0
2019-Jul-15 00:45N 51°43' E 002°20'2 7.8
2019-Jul-15 00:30N 51°44' E 002°22'4 7.9
2019-Jul-14 23:56N 51°48' E 002°27'6 8.0
2019-Jul-14 23:13N 51°52' E 002°33'18 9.1
2019-Jul-14 21:17N 52°09' E 002°37'310.5
2019-Jul-14 20:57N 52°13' E 002°37'510.8
2019-Jul-14 20:28N 52°18' E 002°38'511.0
2019-Jul-14 20:00N 52°23' E 002°38'5336.4
2019-Jul-14 20:00N 52°18' E 002°36'1121.8 360 / 111022.910.8 15.013.814.0
2019-Jul-14 19:30N 52°29' E 002°38'611.2
2019-Jul-14 18:58N 52°35' E 002°38'511.2
2019-Jul-14 18:30N 52°40' E 002°38'711.1
2019-Jul-14 17:52N 52°47' E 002°38'410.8
2019-Jul-14 17:30N 52°51' E 002°38'810.3
2019-Jul-14 16:42N 52°59' E 002°38'31 8.8
2019-Jul-14 13:09N 53°29' E 002°53'5 8.7
2019-Jul-14 12:34N 53°34' E 002°56'1 8.9
2019-Jul-14 12:27N 53°35' E 002°56'6 9.1
2019-Jul-14 11:47N 53°41' E 002°58'3 8.0
2019-Jul-14 11:26N 53°44' E 002°57'54 9.1
2019-Jul-14 05:31N 54°09' E 001°37'110.0
2019-Jul-14 05:27N 54°09' E 001°36'4 9.9
2019-Jul-14 05:00N 54°11' E 001°29'510.0
2019-Jul-14 04:30N 54°13' E 001°21'510.0
2019-Jul-14 03:59N 54°16' E 001°13'1515.0
2019-Jul-14 03:00N 54°18' E 000°48'51 8.5 350 / 181023.310.8 15.013.2
2019-Jul-13 21:00N 54°42' W 000°30'1811.1 010 / 81024.110.8 15.113.713.0
2019-Jul-13 19:22N 54°53' W 000°55'3 8.9
2019-Jul-13 19:00N 54°54' W 000°60'4 9.1
2019-Jul-13 18:30N 54°57' W 001°07'5 9.1
2019-Jul-13 18:00N 54°59' W 001°14'4 8.9
2019-Jul-13 17:30N 55°01' W 001°21'3 6.9
2019-Jul-13 17:01N 54°60' W 001°27'1 1.2
2019-Jul-13 16:28N 54°59' W 001°27'0 0.0
2019-Jul-13 15:58N 54°59' W 001°27'0 0.0
2019-Jul-13 15:28N 54°59' W 001°27'0 0.0
2019-Jul-13 14:58N 54°59' W 001°27'0 0.0
2019-Jul-13 14:28N 54°59' W 001°27'0 0.0
2019-Jul-13 13:58N 54°59' W 001°27'0 0.0
2019-Jul-13 13:28N 54°59' W 001°27'0 0.0
2019-Jul-13 12:58N 54°59' W 001°27'0 0.0
2019-Jul-13 12:28N 54°59' W 001°27'0 0.0
2019-Jul-13 11:58N 54°59' W 001°27'0 0.0
2019-Jul-13 11:19N 54°59' W 001°27'0 0.0
2019-Jul-13 10:52N 54°59' W 001°27'0 0.0
2019-Jul-13 10:22N 54°59' W 001°27'0 0.0
2019-Jul-13 09:52N 54°59' W 001°27'0 0.0
2019-Jul-13 09:22N 54°59' W 001°27'0 0.0
2019-Jul-13 08:52N 54°59' W 001°27'0 0.4
2019-Jul-13 08:30N 54°59' W 001°27'2 3.2
2019-Jul-13 08:00N 55°01' W 001°26'3 6.7
2019-Jul-13 07:30N 55°02' W 001°20'4 8.8
2019-Jul-13 07:00N 55°06' W 001°20'713.3
2019-Jul-13 06:30N 55°13' W 001°20'612.9
2019-Jul-13 06:00N 55°19' W 001°20'713.1
2019-Jul-13 05:30N 55°26' W 001°22'714.5
2019-Jul-13 05:01N 55°33' W 001°24'714.5
2019-Jul-13 04:31N 55°40' W 001°26'714.5
2019-Jul-13 04:01N 55°46' W 001°34'714.8
2019-Jul-13 03:30N 55°52' W 001°42'714.8
2019-Jul-13 03:01N 55°58' W 001°50'814.9
2019-Jul-13 02:27N 56°04' W 001°59'1514.2
2019-Jul-13 01:23N 56°17' W 002°12'615.0
2019-Jul-13 01:00N 56°20' W 002°21'713.4
2019-Jul-13 00:30N 56°25' W 002°30'510.9
2019-Jul-13 00:00N 56°29' W 002°37'5 9.5
2019-Jul-12 23:30N 56°27' W 002°45'6 8.5
2019-Jul-12 22:45N 56°28' W 002°57'0 0.0
2019-Jul-12 21:01N 56°28' W 002°57'0 0.0
2019-Jul-12 20:46N 56°28' W 002°57'0 0.0
2019-Jul-12 15:10N 56°28' W 002°57'0 0.0
2019-Jul-12 14:58N 56°28' W 002°57'0 0.0
2019-Jul-12 14:16N 56°28' W 002°57'0 0.0
2019-Jul-12 13:46N 56°28' W 002°57'0 0.0
2019-Jul-12 13:19N 56°28' W 002°57'0 0.0
2019-Jul-12 12:07N 56°28' W 002°57'0 0.0
2019-Jul-12 11:07N 56°28' W 002°57'0 0.0
2019-Jul-12 10:37N 56°28' W 002°57'0 0.1
2019-Jul-12 10:21N 56°28' W 002°57'5 6.9
2019-Jul-12 09:34N 56°27' W 002°47'110.0
2019-Jul-12 09:30N 56°27' W 002°46'5 9.1
2019-Jul-12 09:00N 56°28' W 002°38'510.1
2019-Jul-12 08:30N 56°31' W 002°30'510.4
2019-Jul-12 08:00N 56°36' W 002°27'25 9.5
2019-Jul-12 05:24N 56°54' W 001°57'411.1
2019-Jul-12 05:00N 56°57' W 001°51'  

Dump ship's entire track history